Alsask, Canada
Current Conditions -  °F | °C
As of 12:00 AM on Thursday 23 Oct 2014 (Local Time) from CYKY Reporting Station
Scattered Clouds Scattered Clouds  
Wind Chill: 39°   Ceiling: Unl
Heat Index: 45°   Visibility: 15mi
Dew Point: 36°   Wind: 12mph
Humidity: 71%   Direction: 160°SSE
Pressure: 29.68"   Gusts: NA
Location:  51.37°N, 109.98°W
Report Text: CYKY 230600Z 16010KT 15SM FEW070 SCT250 07/02 A2968 RMK AC1CI2 SLP063
Loading
Personal Weather Stations






























Interactive Weather Map
Tropical Storm Tracking
New forecast layout! Learn more

10-Day Weather Forecast

Advertisements
Track Severe Weather on mobile